sensor_id;sensor_type;location;lat;lon;timestamp;pressure;altitude;pressure_sealevel;temperature
15062;BMP180;7630;50.306;8.566;2023-09-19T00:03:18;97269.00;;;18.90
15062;BMP180;7630;50.306;8.566;2023-09-19T00:07:19;97285.00;;;18.70
15062;BMP180;7630;50.306;8.566;2023-09-19T00:11:22;97277.00;;;18.60
15062;BMP180;7630;50.306;8.566;2023-09-19T00:15:26;97275.00;;;19.00
15062;BMP180;7630;50.306;8.566;2023-09-19T00:19:29;97288.00;;;19.10
15062;BMP180;7630;50.306;8.566;2023-09-19T00:23:31;97285.00;;;19.00
15062;BMP180;7630;50.306;8.566;2023-09-19T00:27:35;97297.00;;;19.40
15062;BMP180;7630;50.306;8.566;2023-09-19T00:31:38;97288.00;;;18.50
15062;BMP180;7630;50.306;8.566;2023-09-19T00:35:48;97291.00;;;18.90
15062;BMP180;7630;50.306;8.566;2023-09-19T00:39:50;97303.00;;;19.70
15062;BMP180;7630;50.306;8.566;2023-09-19T00:43:51;97300.00;;;19.10
15062;BMP180;7630;50.306;8.566;2023-09-19T00:47:52;97301.00;;;18.80
15062;BMP180;7630;50.306;8.566;2023-09-19T00:51:55;97302.00;;;19.20
15062;BMP180;7630;50.306;8.566;2023-09-19T00:55:56;97317.00;;;19.30
15062;BMP180;7630;50.306;8.566;2023-09-19T00:59:58;97302.00;;;18.80
15062;BMP180;7630;50.306;8.566;2023-09-19T01:04:00;97328.00;;;19.10
15062;BMP180;7630;50.306;8.566;2023-09-19T01:08:01;97324.00;;;19.00
15062;BMP180;7630;50.306;8.566;2023-09-19T01:12:05;97335.00;;;18.90
15062;BMP180;7630;50.306;8.566;2023-09-19T01:16:11;97342.00;;;18.60
15062;BMP180;7630;50.306;8.566;2023-09-19T01:33:25;97350.00;;;18.30
15062;BMP180;7630;50.306;8.566;2023-09-19T01:37:27;97365.00;;;17.60
15062;BMP180;7630;50.306;8.566;2023-09-19T01:46:13;97366.00;;;17.20
15062;BMP180;7630;50.306;8.566;2023-09-19T01:50:34;97358.00;;;17.30
15062;BMP180;7630;50.306;8.566;2023-09-19T01:54:45;97367.00;;;17.30
15062;BMP180;7630;50.306;8.566;2023-09-19T01:58:48;97378.00;;;17.50
15062;BMP180;7630;50.306;8.566;2023-09-19T02:02:51;97375.00;;;17.80
15062;BMP180;7630;50.306;8.566;2023-09-19T02:06:53;97380.00;;;18.30
15062;BMP180;7630;50.306;8.566;2023-09-19T02:10:57;97393.00;;;17.40
15062;BMP180;7630;50.306;8.566;2023-09-19T02:14:59;97391.00;;;17.50
15062;BMP180;7630;50.306;8.566;2023-09-19T02:19:00;97387.00;;;18.20
15062;BMP180;7630;50.306;8.566;2023-09-19T02:23:01;97391.00;;;17.10
15062;BMP180;7630;50.306;8.566;2023-09-19T02:27:04;97394.00;;;17.90
15062;BMP180;7630;50.306;8.566;2023-09-19T02:31:05;97390.00;;;18.30
15062;BMP180;7630;50.306;8.566;2023-09-19T02:35:07;97393.00;;;17.90
15062;BMP180;7630;50.306;8.566;2023-09-19T02:39:11;97395.00;;;18.20
15062;BMP180;7630;50.306;8.566;2023-09-19T02:43:12;97391.00;;;18.20
15062;BMP180;7630;50.306;8.566;2023-09-19T02:47:13;97382.00;;;17.50
15062;BMP180;7630;50.306;8.566;2023-09-19T02:51:16;97387.00;;;17.50
15062;BMP180;7630;50.306;8.566;2023-09-19T02:55:18;97386.00;;;17.40
15062;BMP180;7630;50.306;8.566;2023-09-19T02:59:20;97390.00;;;17.40
15062;BMP180;7630;50.306;8.566;2023-09-19T03:03:21;97403.00;;;17.30
15062;BMP180;7630;50.306;8.566;2023-09-19T03:07:22;97405.00;;;17.40
15062;BMP180;7630;50.306;8.566;2023-09-19T03:11:23;97406.00;;;17.60
15062;BMP180;7630;50.306;8.566;2023-09-19T03:15:26;97409.00;;;18.40
15062;BMP180;7630;50.306;8.566;2023-09-19T03:19:27;97412.00;;;18.00
15062;BMP180;7630;50.306;8.566;2023-09-19T03:23:29;97413.00;;;18.00
15062;BMP180;7630;50.306;8.566;2023-09-19T03:27:31;97417.00;;;18.70
15062;BMP180;7630;50.306;8.566;2023-09-19T03:31:32;97426.00;;;18.40
15062;BMP180;7630;50.306;8.566;2023-09-19T03:35:34;97419.00;;;18.50
15062;BMP180;7630;50.306;8.566;2023-09-19T03:39:36;97418.00;;;18.30
15062;BMP180;7630;50.306;8.566;2023-09-19T03:43:37;97418.00;;;18.00
15062;BMP180;7630;50.306;8.566;2023-09-19T03:47:39;97423.00;;;18.10
15062;BMP180;7630;50.306;8.566;2023-09-19T03:51:41;97419.00;;;17.80
15062;BMP180;7630;50.306;8.566;2023-09-19T03:55:44;97421.00;;;17.80
15062;BMP180;7630;50.306;8.566;2023-09-19T03:59:46;97426.00;;;18.10
15062;BMP180;7630;50.306;8.566;2023-09-19T04:03:48;97420.00;;;17.60
15062;BMP180;7630;50.306;8.566;2023-09-19T04:07:50;97431.00;;;18.30
15062;BMP180;7630;50.306;8.566;2023-09-19T04:11:51;97430.00;;;18.00
15062;BMP180;7630;50.306;8.566;2023-09-19T04:15:52;97432.00;;;18.00
15062;BMP180;7630;50.306;8.566;2023-09-19T04:19:53;97435.00;;;17.40
15062;BMP180;7630;50.306;8.566;2023-09-19T04:23:54;97448.00;;;17.10
15062;BMP180;7630;50.306;8.566;2023-09-19T04:27:55;97467.00;;;18.10
15062;BMP180;7630;50.306;8.566;2023-09-19T04:31:57;97459.00;;;17.70
15062;BMP180;7630;50.306;8.566;2023-09-19T04:35:58;97452.00;;;17.00
15062;BMP180;7630;50.306;8.566;2023-09-19T04:40:03;97454.00;;;17.80
15062;BMP180;7630;50.306;8.566;2023-09-19T04:44:06;97450.00;;;17.70
15062;BMP180;7630;50.306;8.566;2023-09-19T04:48:08;97465.00;;;17.90
15062;BMP180;7630;50.306;8.566;2023-09-19T04:52:10;97467.00;;;17.70
15062;BMP180;7630;50.306;8.566;2023-09-19T04:56:11;97470.00;;;17.50
15062;BMP180;7630;50.306;8.566;2023-09-19T05:00:13;97472.00;;;17.80
15062;BMP180;7630;50.306;8.566;2023-09-19T05:04:15;97475.00;;;18.10
15062;BMP180;7630;50.306;8.566;2023-09-19T05:08:17;97486.00;;;18.10
15062;BMP180;7630;50.306;8.566;2023-09-19T05:12:18;97479.00;;;18.10
15062;BMP180;7630;50.306;8.566;2023-09-19T05:16:23;97477.00;;;18.20
15062;BMP180;7630;50.306;8.566;2023-09-19T05:20:25;97486.00;;;18.40
15062;BMP180;7630;50.306;8.566;2023-09-19T05:24:28;97491.00;;;18.60
15062;BMP180;7630;50.306;8.566;2023-09-19T05:28:29;97492.00;;;17.60
15062;BMP180;7630;50.306;8.566;2023-09-19T05:32:30;97495.00;;;17.20
15062;BMP180;7630;50.306;8.566;2023-09-19T05:36:31;97498.00;;;18.60
15062;BMP180;7630;50.306;8.566;2023-09-19T05:40:34;97496.00;;;18.60
15062;BMP180;7630;50.306;8.566;2023-09-19T05:44:36;97499.00;;;18.00
15062;BMP180;7630;50.306;8.566;2023-09-19T05:48:37;97495.00;;;18.60
15062;BMP180;7630;50.306;8.566;2023-09-19T05:52:40;97495.00;;;18.60
15062;BMP180;7630;50.306;8.566;2023-09-19T05:56:43;97495.00;;;18.80
15062;BMP180;7630;50.306;8.566;2023-09-19T06:00:44;97514.00;;;18.80
15062;BMP180;7630;50.306;8.566;2023-09-19T06:04:47;97514.00;;;18.30
15062;BMP180;7630;50.306;8.566;2023-09-19T06:08:48;97503.00;;;17.80
15062;BMP180;7630;50.306;8.566;2023-09-19T06:12:51;97519.00;;;18.60
15062;BMP180;7630;50.306;8.566;2023-09-19T06:16:52;97527.00;;;18.30
15062;BMP180;7630;50.306;8.566;2023-09-19T06:20:55;97537.00;;;17.50
15062;BMP180;7630;50.306;8.566;2023-09-19T06:24:56;97534.00;;;18.10
15062;BMP180;7630;50.306;8.566;2023-09-19T06:28:58;97551.00;;;18.30
15062;BMP180;7630;50.306;8.566;2023-09-19T06:33:00;97539.00;;;19.00
15062;BMP180;7630;50.306;8.566;2023-09-19T06:37:02;97547.00;;;18.00
15062;BMP180;7630;50.306;8.566;2023-09-19T06:41:04;97555.00;;;17.50
15062;BMP180;7630;50.306;8.566;2023-09-19T06:45:06;97567.00;;;18.50
15062;BMP180;7630;50.306;8.566;2023-09-19T06:49:08;97567.00;;;18.80
15062;BMP180;7630;50.306;8.566;2023-09-19T06:53:11;97596.00;;;19.00
15062;BMP180;7630;50.306;8.566;2023-09-19T06:57:12;97604.00;;;18.20
15062;BMP180;7630;50.306;8.566;2023-09-19T07:01:15;97594.00;;;18.30
15062;BMP180;7630;50.306;8.566;2023-09-19T07:05:16;97597.00;;;17.90
15062;BMP180;7630;50.306;8.566;2023-09-19T07:09:19;97600.00;;;18.70
15062;BMP180;7630;50.306;8.566;2023-09-19T07:13:21;97599.00;;;17.70
15062;BMP180;7630;50.306;8.566;2023-09-19T07:17:22;97604.00;;;17.20
15062;BMP180;7630;50.306;8.566;2023-09-19T07:21:25;97617.00;;;17.40
15062;BMP180;7630;50.306;8.566;2023-09-19T07:25:27;97612.00;;;17.60
15062;BMP180;7630;50.306;8.566;2023-09-19T07:29:28;97624.00;;;18.30
15062;BMP180;7630;50.306;8.566;2023-09-19T07:33:29;97620.00;;;17.00
15062;BMP180;7630;50.306;8.566;2023-09-19T07:37:31;97637.00;;;18.20
15062;BMP180;7630;50.306;8.566;2023-09-19T07:41:34;97637.00;;;18.60
15062;BMP180;7630;50.306;8.566;2023-09-19T07:45:35;97642.00;;;18.30
15062;BMP180;7630;50.306;8.566;2023-09-19T07:49:38;97648.00;;;19.00
15062;BMP180;7630;50.306;8.566;2023-09-19T07:53:39;97644.00;;;19.00
15062;BMP180;7630;50.306;8.566;2023-09-19T07:57:40;97646.00;;;18.90
15062;BMP180;7630;50.306;8.566;2023-09-19T08:01:42;97650.00;;;18.60
15062;BMP180;7630;50.306;8.566;2023-09-19T08:05:45;97652.00;;;18.30
15062;BMP180;7630;50.306;8.566;2023-09-19T08:09:47;97655.00;;;18.80
15062;BMP180;7630;50.306;8.566;2023-09-19T08:13:49;97658.00;;;18.50
15062;BMP180;7630;50.306;8.566;2023-09-19T08:17:51;97648.00;;;19.10
15062;BMP180;7630;50.306;8.566;2023-09-19T08:21:52;97661.00;;;19.10
15062;BMP180;7630;50.306;8.566;2023-09-19T08:25:57;97665.00;;;18.50
15062;BMP180;7630;50.306;8.566;2023-09-19T08:29:59;97674.00;;;18.50
15062;BMP180;7630;50.306;8.566;2023-09-19T08:34:00;97668.00;;;18.60
15062;BMP180;7630;50.306;8.566;2023-09-19T08:38:02;97679.00;;;18.70
15062;BMP180;7630;50.306;8.566;2023-09-19T08:42:05;97672.00;;;17.90
15062;BMP180;7630;50.306;8.566;2023-09-19T08:46:11;97674.00;;;18.80
15062;BMP180;7630;50.306;8.566;2023-09-19T08:50:25;97681.00;;;19.70
15062;BMP180;7630;50.306;8.566;2023-09-19T08:54:25;97675.00;;;20.30
15062;BMP180;7630;50.306;8.566;2023-09-19T08:58:34;97674.00;;;19.80
15062;BMP180;7630;50.306;8.566;2023-09-19T09:02:40;97677.00;;;19.60
15062;BMP180;7630;50.306;8.566;2023-09-19T09:06:43;97674.00;;;19.60
15062;BMP180;7630;50.306;8.566;2023-09-19T09:10:45;97677.00;;;20.20
15062;BMP180;7630;50.306;8.566;2023-09-19T09:14:47;97690.00;;;20.50
15062;BMP180;7630;50.306;8.566;2023-09-19T09:18:49;97681.00;;;19.10
15062;BMP180;7630;50.306;8.566;2023-09-19T09:22:56;97691.00;;;19.40
15062;BMP180;7630;50.306;8.566;2023-09-19T09:27:06;97688.00;;;19.10
15062;BMP180;7630;50.306;8.566;2023-09-19T09:31:23;97692.00;;;19.70
15062;BMP180;7630;50.306;8.566;2023-09-19T09:35:24;97684.00;;;19.70
15062;BMP180;7630;50.306;8.566;2023-09-19T09:39:32;97686.00;;;20.00
15062;BMP180;7630;50.306;8.566;2023-09-19T09:43:36;97692.00;;;20.30
15062;BMP180;7630;50.306;8.566;2023-09-19T09:47:47;97696.00;;;20.30
15062;BMP180;7630;50.306;8.566;2023-09-19T09:52:04;97697.00;;;19.80
15062;BMP180;7630;50.306;8.566;2023-09-19T09:56:12;97694.00;;;19.30
15062;BMP180;7630;50.306;8.566;2023-09-19T10:00:15;97696.00;;;19.80
15062;BMP180;7630;50.306;8.566;2023-09-19T10:04:28;97696.00;;;19.70
15062;BMP180;7630;50.306;8.566;2023-09-19T10:08:34;97690.00;;;20.70
15062;BMP180;7630;50.306;8.566;2023-09-19T10:12:41;97687.00;;;21.00
15062;BMP180;7630;50.306;8.566;2023-09-19T10:16:46;97687.00;;;21.10
15062;BMP180;7630;50.306;8.566;2023-09-19T10:20:49;97677.00;;;19.90
15062;BMP180;7630;50.306;8.566;2023-09-19T10:24:53;97681.00;;;19.80
15062;BMP180;7630;50.306;8.566;2023-09-19T10:28:57;97681.00;;;20.30
15062;BMP180;7630;50.306;8.566;2023-09-19T10:33:03;97669.00;;;20.80
15062;BMP180;7630;50.306;8.566;2023-09-19T10:37:05;97685.00;;;21.00
15062;BMP180;7630;50.306;8.566;2023-09-19T10:41:10;97679.00;;;21.20
15062;BMP180;7630;50.306;8.566;2023-09-19T10:45:12;97685.00;;;20.60
15062;BMP180;7630;50.306;8.566;2023-09-19T10:49:16;97693.00;;;20.40
15062;BMP180;7630;50.306;8.566;2023-09-19T10:53:19;97681.00;;;20.60
15062;BMP180;7630;50.306;8.566;2023-09-19T10:57:22;97687.00;;;21.10
15062;BMP180;7630;50.306;8.566;2023-09-19T11:01:40;97688.00;;;21.80
15062;BMP180;7630;50.306;8.566;2023-09-19T11:05:30;97693.00;;;21.70
15062;BMP180;7630;50.306;8.566;2023-09-19T11:27:15;97670.00;;;20.80
15062;BMP180;7630;50.306;8.566;2023-09-19T11:31:43;97665.00;;;22.50
15062;BMP180;7630;50.306;8.566;2023-09-19T11:40:08;97656.00;;;22.00
15062;BMP180;7630;50.306;8.566;2023-09-19T11:48:29;97672.00;;;20.60
15062;BMP180;7630;50.306;8.566;2023-09-19T11:52:31;97660.00;;;21.30
15062;BMP180;7630;50.306;8.566;2023-09-19T11:56:38;97674.00;;;21.60
15062;BMP180;7630;50.306;8.566;2023-09-19T12:00:41;97674.00;;;21.90
15062;BMP180;7630;50.306;8.566;2023-09-19T12:04:44;97674.00;;;21.80
15062;BMP180;7630;50.306;8.566;2023-09-19T12:08:51;97671.00;;;21.30
15062;BMP180;7630;50.306;8.566;2023-09-19T12:12:54;97673.00;;;23.00
15062;BMP180;7630;50.306;8.566;2023-09-19T12:16:57;97673.00;;;22.00
15062;BMP180;7630;50.306;8.566;2023-09-19T12:21:01;97674.00;;;22.60
15062;BMP180;7630;50.306;8.566;2023-09-19T12:25:07;97671.00;;;22.10
15062;BMP180;7630;50.306;8.566;2023-09-19T12:29:13;97669.00;;;22.20
15062;BMP180;7630;50.306;8.566;2023-09-19T12:33:19;97657.00;;;22.60
15062;BMP180;7630;50.306;8.566;2023-09-19T12:37:22;97654.00;;;22.30
15062;BMP180;7630;50.306;8.566;2023-09-19T12:41:23;97653.00;;;22.70
15062;BMP180;7630;50.306;8.566;2023-09-19T12:45:25;97656.00;;;22.70
15062;BMP180;7630;50.306;8.566;2023-09-19T12:49:27;97649.00;;;22.90
15062;BMP180;7630;50.306;8.566;2023-09-19T12:53:28;97648.00;;;23.00
15062;BMP180;7630;50.306;8.566;2023-09-19T12:57:30;97639.00;;;23.20
15062;BMP180;7630;50.306;8.566;2023-09-19T13:01:33;97650.00;;;23.60
15062;BMP180;7630;50.306;8.566;2023-09-19T13:05:50;97653.00;;;24.30
15062;BMP180;7630;50.306;8.566;2023-09-19T13:10:04;97647.00;;;25.00
15062;BMP180;7630;50.306;8.566;2023-09-19T13:14:25;97658.00;;;24.30
15062;BMP180;7630;50.306;8.566;2023-09-19T13:18:32;97653.00;;;23.20
15062;BMP180;7630;50.306;8.566;2023-09-19T13:22:42;97646.00;;;23.70
15062;BMP180;7630;50.306;8.566;2023-09-19T13:26:45;97647.00;;;23.50
15062;BMP180;7630;50.306;8.566;2023-09-19T13:30:47;97640.00;;;22.60
15062;BMP180;7630;50.306;8.566;2023-09-19T13:34:49;97638.00;;;22.20
15062;BMP180;7630;50.306;8.566;2023-09-19T13:38:50;97642.00;;;23.40
15062;BMP180;7630;50.306;8.566;2023-09-19T13:42:53;97640.00;;;23.50
15062;BMP180;7630;50.306;8.566;2023-09-19T13:46:54;97634.00;;;23.60
15062;BMP180;7630;50.306;8.566;2023-09-19T13:50:57;97636.00;;;23.90
15062;BMP180;7630;50.306;8.566;2023-09-19T13:54:59;97636.00;;;23.60
15062;BMP180;7630;50.306;8.566;2023-09-19T13:59:00;97632.00;;;23.40
15062;BMP180;7630;50.306;8.566;2023-09-19T14:03:02;97642.00;;;23.30
15062;BMP180;7630;50.306;8.566;2023-09-19T14:07:05;97624.00;;;23.50
15062;BMP180;7630;50.306;8.566;2023-09-19T14:11:08;97633.00;;;23.20
15062;BMP180;7630;50.306;8.566;2023-09-19T14:15:10;97631.00;;;23.00
15062;BMP180;7630;50.306;8.566;2023-09-19T14:19:11;97622.00;;;23.60
15062;BMP180;7630;50.306;8.566;2023-09-19T14:23:14;97627.00;;;22.70
15062;BMP180;7630;50.306;8.566;2023-09-19T14:27:15;97623.00;;;22.70
15062;BMP180;7630;50.306;8.566;2023-09-19T14:31:17;97606.00;;;23.40
15062;BMP180;7630;50.306;8.566;2023-09-19T14:35:18;97613.00;;;23.10
15062;BMP180;7630;50.306;8.566;2023-09-19T14:39:19;97607.00;;;24.10
15062;BMP180;7630;50.306;8.566;2023-09-19T14:43:20;97613.00;;;23.50
15062;BMP180;7630;50.306;8.566;2023-09-19T14:47:21;97605.00;;;23.20
15062;BMP180;7630;50.306;8.566;2023-09-19T14:51:24;97604.00;;;23.60
15062;BMP180;7630;50.306;8.566;2023-09-19T14:55:25;97597.00;;;23.10
15062;BMP180;7630;50.306;8.566;2023-09-19T14:59:28;97603.00;;;22.00
15062;BMP180;7630;50.306;8.566;2023-09-19T15:03:29;97596.00;;;21.30
15062;BMP180;7630;50.306;8.566;2023-09-19T15:07:31;97580.00;;;21.30
15062;BMP180;7630;50.306;8.566;2023-09-19T15:11:35;97591.00;;;21.10
15062;BMP180;7630;50.306;8.566;2023-09-19T15:15:36;97594.00;;;21.60
15062;BMP180;7630;50.306;8.566;2023-09-19T15:19:37;97602.00;;;21.70
15062;BMP180;7630;50.306;8.566;2023-09-19T15:23:40;97595.00;;;21.70
15062;BMP180;7630;50.306;8.566;2023-09-19T15:27:42;97601.00;;;21.40
15062;BMP180;7630;50.306;8.566;2023-09-19T15:31:45;97589.00;;;21.50
15062;BMP180;7630;50.306;8.566;2023-09-19T15:35:46;97587.00;;;21.20
15062;BMP180;7630;50.306;8.566;2023-09-19T15:39:47;97589.00;;;21.70
15062;BMP180;7630;50.306;8.566;2023-09-19T15:43:48;97602.00;;;22.10
15062;BMP180;7630;50.306;8.566;2023-09-19T15:47:50;97592.00;;;22.20
15062;BMP180;7630;50.306;8.566;2023-09-19T15:51:51;97595.00;;;21.30
15062;BMP180;7630;50.306;8.566;2023-09-19T15:55:53;97598.00;;;21.60
15062;BMP180;7630;50.306;8.566;2023-09-19T15:59:54;97598.00;;;21.90
15062;BMP180;7630;50.306;8.566;2023-09-19T16:03:57;97588.00;;;22.30
15062;BMP180;7630;50.306;8.566;2023-09-19T16:07:58;97587.00;;;22.60
15062;BMP180;7630;50.306;8.566;2023-09-19T16:12:00;97580.00;;;21.80
15062;BMP180;7630;50.306;8.566;2023-09-19T16:16:01;97580.00;;;22.20
15062;BMP180;7630;50.306;8.566;2023-09-19T16:20:04;97580.00;;;22.20
15062;BMP180;7630;50.306;8.566;2023-09-19T16:24:07;97588.00;;;21.50
15062;BMP180;7630;50.306;8.566;2023-09-19T16:28:11;97572.00;;;21.90
15062;BMP180;7630;50.306;8.566;2023-09-19T16:32:12;97577.00;;;22.00
15062;BMP180;7630;50.306;8.566;2023-09-19T16:36:18;97574.00;;;22.50
15062;BMP180;7630;50.306;8.566;2023-09-19T16:40:19;97565.00;;;21.80
15062;BMP180;7630;50.306;8.566;2023-09-19T16:44:20;97567.00;;;22.10
15062;BMP180;7630;50.306;8.566;2023-09-19T16:48:22;97566.00;;;21.70
15062;BMP180;7630;50.306;8.566;2023-09-19T16:52:24;97555.00;;;21.90
15062;BMP180;7630;50.306;8.566;2023-09-19T16:56:25;97564.00;;;22.00
15062;BMP180;7630;50.306;8.566;2023-09-19T17:00:27;97570.00;;;22.00
15062;BMP180;7630;50.306;8.566;2023-09-19T17:04:29;97569.00;;;21.10
15062;BMP180;7630;50.306;8.566;2023-09-19T17:08:32;97575.00;;;21.30
15062;BMP180;7630;50.306;8.566;2023-09-19T17:12:33;97579.00;;;21.60
15062;BMP180;7630;50.306;8.566;2023-09-19T17:16:35;97588.00;;;21.40
15062;BMP180;7630;50.306;8.566;2023-09-19T17:20:41;97599.00;;;21.70
15062;BMP180;7630;50.306;8.566;2023-09-19T17:24:42;97592.00;;;21.70
15062;BMP180;7630;50.306;8.566;2023-09-19T17:28:46;97596.00;;;21.40
15062;BMP180;7630;50.306;8.566;2023-09-19T17:32:47;97595.00;;;21.00
15062;BMP180;7630;50.306;8.566;2023-09-19T17:36:48;97600.00;;;21.10
15062;BMP180;7630;50.306;8.566;2023-09-19T17:40:50;97595.00;;;20.90
15062;BMP180;7630;50.306;8.566;2023-09-19T17:44:52;97597.00;;;20.90
15062;BMP180;7630;50.306;8.566;2023-09-19T17:48:55;97597.00;;;20.70
15062;BMP180;7630;50.306;8.566;2023-09-19T17:52:56;97603.00;;;21.10
15062;BMP180;7630;50.306;8.566;2023-09-19T17:56:59;97601.00;;;20.50
15062;BMP180;7630;50.306;8.566;2023-09-19T18:01:15;97599.00;;;20.60
15062;BMP180;7630;50.306;8.566;2023-09-19T18:05:17;97598.00;;;20.30
15062;BMP180;7630;50.306;8.566;2023-09-19T18:09:18;97601.00;;;21.20
15062;BMP180;7630;50.306;8.566;2023-09-19T18:13:19;97605.00;;;21.00
15062;BMP180;7630;50.306;8.566;2023-09-19T18:17:21;97606.00;;;21.30
15062;BMP180;7630;50.306;8.566;2023-09-19T18:21:23;97600.00;;;20.60
15062;BMP180;7630;50.306;8.566;2023-09-19T18:25:24;97603.00;;;20.80
15062;BMP180;7630;50.306;8.566;2023-09-19T18:29:26;97607.00;;;20.60
15062;BMP180;7630;50.306;8.566;2023-09-19T18:33:28;97614.00;;;20.80
15062;BMP180;7630;50.306;8.566;2023-09-19T18:37:29;97619.00;;;20.80
15062;BMP180;7630;50.306;8.566;2023-09-19T18:41:33;97627.00;;;20.40
15062;BMP180;7630;50.306;8.566;2023-09-19T18:45:36;97623.00;;;20.40
15062;BMP180;7630;50.306;8.566;2023-09-19T18:49:40;97630.00;;;20.50
15062;BMP180;7630;50.306;8.566;2023-09-19T18:53:43;97629.00;;;20.80
15062;BMP180;7630;50.306;8.566;2023-09-19T18:57:47;97629.00;;;20.00
15062;BMP180;7630;50.306;8.566;2023-09-19T19:01:49;97616.00;;;20.00
15062;BMP180;7630;50.306;8.566;2023-09-19T19:05:50;97630.00;;;20.50
15062;BMP180;7630;50.306;8.566;2023-09-19T19:09:52;97628.00;;;20.60
15062;BMP180;7630;50.306;8.566;2023-09-19T19:13:53;97625.00;;;20.00
15062;BMP180;7630;50.306;8.566;2023-09-19T19:17:55;97541.00;;;20.10
15062;BMP180;7630;50.306;8.566;2023-09-19T19:21:59;97621.00;;;20.40
15062;BMP180;7630;50.306;8.566;2023-09-19T19:26:03;97628.00;;;20.30
15062;BMP180;7630;50.306;8.566;2023-09-19T19:30:06;97627.00;;;20.00
15062;BMP180;7630;50.306;8.566;2023-09-19T19:34:07;97626.00;;;20.40
15062;BMP180;7630;50.306;8.566;2023-09-19T19:38:10;97623.00;;;20.30
15062;BMP180;7630;50.306;8.566;2023-09-19T19:42:11;97615.00;;;20.40
15062;BMP180;7630;50.306;8.566;2023-09-19T19:46:14;97622.00;;;19.80
15062;BMP180;7630;50.306;8.566;2023-09-19T19:50:15;97619.00;;;20.20
15062;BMP180;7630;50.306;8.566;2023-09-19T19:54:18;97613.00;;;19.90
15062;BMP180;7630;50.306;8.566;2023-09-19T19:58:19;97649.00;;;19.70
15062;BMP180;7630;50.306;8.566;2023-09-19T20:02:25;97652.00;;;20.30
15062;BMP180;7630;50.306;8.566;2023-09-19T20:06:27;97639.00;;;19.80
15062;BMP180;7630;50.306;8.566;2023-09-19T20:10:29;97642.00;;;19.50
15062;BMP180;7630;50.306;8.566;2023-09-19T20:14:30;97646.00;;;19.50
15062;BMP180;7630;50.306;8.566;2023-09-19T20:18:32;97650.00;;;20.00
15062;BMP180;7630;50.306;8.566;2023-09-19T20:22:36;97644.00;;;19.40
15062;BMP180;7630;50.306;8.566;2023-09-19T20:26:37;97650.00;;;20.10
15062;BMP180;7630;50.306;8.566;2023-09-19T20:30:39;97653.00;;;19.40
15062;BMP180;7630;50.306;8.566;2023-09-19T20:34:43;97648.00;;;19.30
15062;BMP180;7630;50.306;8.566;2023-09-19T20:38:45;97648.00;;;19.90
15062;BMP180;7630;50.306;8.566;2023-09-19T20:42:47;97644.00;;;20.00
15062;BMP180;7630;50.306;8.566;2023-09-19T20:46:50;97617.00;;;19.50
15062;BMP180;7630;50.306;8.566;2023-09-19T20:50:53;97647.00;;;20.20
15062;BMP180;7630;50.306;8.566;2023-09-19T20:54:55;97650.00;;;19.90
15062;BMP180;7630;50.306;8.566;2023-09-19T20:58:57;97644.00;;;19.60
15062;BMP180;7630;50.306;8.566;2023-09-19T21:02:59;97647.00;;;19.80
15062;BMP180;7630;50.306;8.566;2023-09-19T21:07:01;97649.00;;;19.30
15062;BMP180;7630;50.306;8.566;2023-09-19T21:11:19;97644.00;;;20.10
15062;BMP180;7630;50.306;8.566;2023-09-19T21:15:21;97643.00;;;20.10
15062;BMP180;7630;50.306;8.566;2023-09-19T21:19:22;97632.00;;;20.20
15062;BMP180;7630;50.306;8.566;2023-09-19T21:23:23;97634.00;;;19.50
15062;BMP180;7630;50.306;8.566;2023-09-19T21:27:25;97644.00;;;20.00
15062;BMP180;7630;50.306;8.566;2023-09-19T21:31:26;97580.00;;;20.40
15062;BMP180;7630;50.306;8.566;2023-09-19T21:35:27;97641.00;;;20.30
15062;BMP180;7630;50.306;8.566;2023-09-19T21:39:29;97637.00;;;20.00
15062;BMP180;7630;50.306;8.566;2023-09-19T21:43:30;97641.00;;;19.70
15062;BMP180;7630;50.306;8.566;2023-09-19T21:47:31;97646.00;;;19.90
15062;BMP180;7630;50.306;8.566;2023-09-19T21:51:33;97654.00;;;19.90
15062;BMP180;7630;50.306;8.566;2023-09-19T21:55:34;97646.00;;;20.00
15062;BMP180;7630;50.306;8.566;2023-09-19T21:59:36;97649.00;;;20.20
15062;BMP180;7630;50.306;8.566;2023-09-19T22:03:38;97649.00;;;20.00
15062;BMP180;7630;50.306;8.566;2023-09-19T22:07:40;97649.00;;;19.90
15062;BMP180;7630;50.306;8.566;2023-09-19T22:11:43;97647.00;;;19.70
15062;BMP180;7630;50.306;8.566;2023-09-19T22:15:45;97633.00;;;19.60
15062;BMP180;7630;50.306;8.566;2023-09-19T22:19:46;97639.00;;;19.60
15062;BMP180;7630;50.306;8.566;2023-09-19T22:23:47;97636.00;;;19.60
15062;BMP180;7630;50.306;8.566;2023-09-19T22:27:49;97638.00;;;19.90
15062;BMP180;7630;50.306;8.566;2023-09-19T22:31:50;97635.00;;;19.20
15062;BMP180;7630;50.306;8.566;2023-09-19T22:35:51;97631.00;;;19.20
15062;BMP180;7630;50.306;8.566;2023-09-19T22:39:54;97630.00;;;19.00
15062;BMP180;7630;50.306;8.566;2023-09-19T22:43:55;97629.00;;;19.20
15062;BMP180;7630;50.306;8.566;2023-09-19T22:47:57;97628.00;;;19.30
15062;BMP180;7630;50.306;8.566;2023-09-19T22:51:59;97629.00;;;20.00
15062;BMP180;7630;50.306;8.566;2023-09-19T22:56:00;97624.00;;;19.50
15062;BMP180;7630;50.306;8.566;2023-09-19T23:00:04;97625.00;;;19.50
15062;BMP180;7630;50.306;8.566;2023-09-19T23:04:07;97632.00;;;19.90
15062;BMP180;7630;50.306;8.566;2023-09-19T23:08:13;97626.00;;;20.30
15062;BMP180;7630;50.306;8.566;2023-09-19T23:12:15;97621.00;;;20.30
15062;BMP180;7630;50.306;8.566;2023-09-19T23:16:19;97627.00;;;20.20
15062;BMP180;7630;50.306;8.566;2023-09-19T23:20:32;97626.00;;;19.30
15062;BMP180;7630;50.306;8.566;2023-09-19T23:24:35;97636.00;;;19.70
15062;BMP180;7630;50.306;8.566;2023-09-19T23:28:38;97633.00;;;19.60
15062;BMP180;7630;50.306;8.566;2023-09-19T23:32:47;97625.00;;;19.60
15062;BMP180;7630;50.306;8.566;2023-09-19T23:36:48;97622.00;;;19.30
15062;BMP180;7630;50.306;8.566;2023-09-19T23:40:50;97612.00;;;19.30
15062;BMP180;7630;50.306;8.566;2023-09-19T23:44:52;97598.00;;;19.80
15062;BMP180;7630;50.306;8.566;2023-09-19T23:48:55;97612.00;;;19.60
15062;BMP180;7630;50.306;8.566;2023-09-19T23:52:58;97612.00;;;19.80
15062;BMP180;7630;50.306;8.566;2023-09-19T23:57:03;97604.00;;;19.70
